Details for Ryanair at EDDK




Go Back


Latest METAR
Local Time

EDDK 221750Z 12003KT 080V180 9999 -SHRA FEW016 FEW036CB SCT090 BKN220 18/16 Q1014 NOSIG

22/05/2018, 19:56:28

Description
Results
Ryanair Logo
Number of Pilots based at EDDK
0 Pilots Based here
Number of Ryanair Flights Departed from EDDK
6 Flights Departed
Number of Ryanair Flights Arrived at EDDK
6 Flights Arrived
Number of Ryanair Schedules Departing from EDDK
51 Schedules
Number of Ryanair Schedules Arriving at EDDK
50 Schedules
Number of Ryanair Schedules Departing from EDDK availible today
20 Schedules Today
Number of Ryanair Schedules Arriving at EDDK availible today
20 Schedules Today
Average Landing Rate at EDDK
-132 fpm
Ryanair Average Landing Rate at EDDK
-142 fpm
Total Fuel Purchased at EDDK by Ryanair
23,070.62 kgs / 50,861.49 lbs

Pilots Based at EDDK


Pilot ID
Pilot Name
Pilot Rank
No. of Flights
No. of Flying Hours
There are no pilots assigned to this hub!   Will you be the first?
Content